createdAt,value
2017-09-11T00:00:28.308Z,998.97
2017-09-11T00:01:28.332Z,998.92
2017-09-11T00:02:28.355Z,998.92
2017-09-11T00:03:28.373Z,998.92
2017-09-11T00:05:28.422Z,998.92
2017-09-11T00:06:28.439Z,998.87
2017-09-11T00:07:28.461Z,998.9
2017-09-11T00:08:28.486Z,998.89
2017-09-11T00:09:28.507Z,998.87
2017-09-11T00:10:28.528Z,998.89
2017-09-11T00:11:28.550Z,998.93
2017-09-11T00:12:28.571Z,998.98
2017-09-11T00:13:28.591Z,998.91
2017-09-11T00:14:28.612Z,998.93
2017-09-11T00:15:28.638Z,998.89
2017-09-11T00:16:28.660Z,998.88
2017-09-11T00:17:28.678Z,998.88
2017-09-11T00:18:28.700Z,998.85
2017-09-11T00:19:28.721Z,998.84
2017-09-11T00:20:28.743Z,998.79
2017-09-11T00:21:28.764Z,998.82
2017-09-11T00:22:28.790Z,998.83
2017-09-11T00:23:28.807Z,998.82
2017-09-11T00:24:28.831Z,998.82
2017-09-11T00:25:28.854Z,998.84
2017-09-11T00:26:28.873Z,998.86
2017-09-11T00:27:28.895Z,998.85
2017-09-11T00:28:28.916Z,998.85
2017-09-11T00:29:28.941Z,998.88
2017-09-11T00:30:28.963Z,998.89
2017-09-11T00:31:28.986Z,998.91
2017-09-11T00:32:29.002Z,998.91
2017-09-11T00:33:29.026Z,998.92
2017-09-11T00:34:29.049Z,998.91
2017-09-11T00:35:29.072Z,998.9
2017-09-11T00:37:29.112Z,998.8
2017-09-11T00:38:29.136Z,998.84
2017-09-11T00:39:29.154Z,998.85
2017-09-11T00:40:29.177Z,998.8
2017-09-11T00:41:29.198Z,998.83
2017-09-11T00:42:29.221Z,998.84
2017-09-11T00:43:29.245Z,998.81
2017-09-11T00:44:29.316Z,998.83
2017-09-11T00:45:29.289Z,998.81
2017-09-11T00:46:29.305Z,998.79
2017-09-11T00:47:29.329Z,998.77
2017-09-11T00:48:29.350Z,998.71
2017-09-11T00:49:29.375Z,998.7
2017-09-11T00:50:29.393Z,998.68
2017-09-11T00:51:29.414Z,998.68
2017-09-11T00:53:29.461Z,998.65
2017-09-11T00:54:29.480Z,998.68
2017-09-11T00:55:29.503Z,998.65
2017-09-11T00:56:29.522Z,998.62
2017-09-11T00:57:29.548Z,998.69
2017-09-11T00:58:29.569Z,998.67
2017-09-11T00:59:29.590Z,998.61
2017-09-11T01:00:29.612Z,998.62
2017-09-11T01:01:29.633Z,998.65
2017-09-11T01:02:29.652Z,998.59
2017-09-11T01:03:29.675Z,998.56
2017-09-11T01:04:29.700Z,998.56
2017-09-11T01:05:29.718Z,998.6
2017-09-11T01:06:29.743Z,998.58
2017-09-11T01:07:29.763Z,998.57
2017-09-11T01:09:29.802Z,998.53
2017-09-11T01:10:29.824Z,998.56
2017-09-11T01:11:29.850Z,998.56
2017-09-11T01:12:29.868Z,998.55
2017-09-11T01:13:29.889Z,998.58
2017-09-11T01:14:29.910Z,998.53
2017-09-11T01:15:29.932Z,998.51
2017-09-11T01:16:29.953Z,998.53
2017-09-11T01:17:29.977Z,998.49
2017-09-11T01:18:29.996Z,998.52
2017-09-11T01:19:30.018Z,998.49
2017-09-11T01:20:30.044Z,998.49
2017-09-11T01:21:30.064Z,998.48
2017-09-11T01:22:30.085Z,998.5
2017-09-11T01:23:30.106Z,998.49
2017-09-11T01:25:30.151Z,998.41
2017-09-11T01:26:30.170Z,998.42
2017-09-11T01:27:30.192Z,998.4
2017-09-11T01:28:30.215Z,998.4
2017-09-11T01:29:30.235Z,998.39
2017-09-11T01:30:30.257Z,998.4
2017-09-11T01:31:30.277Z,998.4
2017-09-11T01:32:30.300Z,998.41
2017-09-11T01:33:30.319Z,998.41
2017-09-11T01:34:30.341Z,998.39
2017-09-11T01:35:30.363Z,998.35
2017-09-11T01:36:30.383Z,998.33
2017-09-11T01:37:30.408Z,998.33
2017-09-11T01:38:30.430Z,998.33
2017-09-11T01:40:30.471Z,998.29
2017-09-11T01:41:30.491Z,998.27
2017-09-11T01:42:30.514Z,998.3
2017-09-11T01:43:30.538Z,998.27
2017-09-11T01:44:30.559Z,998.23
2017-09-11T01:45:30.604Z,998.29
2017-09-11T01:46:30.602Z,998.26
2017-09-11T01:47:30.623Z,998.24
2017-09-11T01:48:30.641Z,998.27
2017-09-11T01:49:30.663Z,998.31
2017-09-11T01:50:30.688Z,998.25
2017-09-11T01:51:30.708Z,998.26
2017-09-11T01:52:30.733Z,998.29
2017-09-11T01:53:30.750Z,998.28
2017-09-11T01:54:30.772Z,998.28
2017-09-11T01:55:30.793Z,998.25
2017-09-11T01:56:30.813Z,998.23
2017-09-11T01:57:30.837Z,998.22
2017-09-11T01:58:30.857Z,998.21
2017-09-11T01:59:30.881Z,998.23
2017-09-11T02:00:30.898Z,998.21
2017-09-11T02:01:30.924Z,998.19
2017-09-11T02:02:30.943Z,998.2
2017-09-11T02:03:30.966Z,998.23
2017-09-11T02:04:30.985Z,998.19
2017-09-11T02:05:31.006Z,998.17
2017-09-11T02:06:31.080Z,998.17
2017-09-11T02:07:31.050Z,998.15
2017-09-11T02:08:31.072Z,998.19
2017-09-11T02:09:31.093Z,998.16
2017-09-11T02:10:31.114Z,998.2
2017-09-11T02:12:31.157Z,998.16
2017-09-11T02:13:31.181Z,998.14
2017-09-11T02:14:31.199Z,998.16
2017-09-11T02:15:31.223Z,998.16
2017-09-11T02:16:31.243Z,998.13
2017-09-11T02:17:31.267Z,998.14
2017-09-11T02:18:31.289Z,998.15
2017-09-11T02:19:31.307Z,998.13
2017-09-11T02:20:31.329Z,998.11
2017-09-11T02:21:31.352Z,998.07
2017-09-11T02:22:31.370Z,998.01
2017-09-11T02:23:31.392Z,997.99
2017-09-11T02:24:31.413Z,998.01
2017-09-11T02:25:31.435Z,998.01
2017-09-11T02:26:31.460Z,997.99
2017-09-11T02:28:31.502Z,997.92
2017-09-11T02:29:31.524Z,997.95
2017-09-11T02:30:31.546Z,997.98
2017-09-11T02:31:31.567Z,997.98
2017-09-11T02:32:31.583Z,997.91
2017-09-11T02:33:31.607Z,997.97
2017-09-11T02:34:31.631Z,997.95
2017-09-11T02:35:31.650Z,997.89
2017-09-11T02:36:31.669Z,997.91
2017-09-11T02:37:31.693Z,997.86
2017-09-11T02:38:31.716Z,997.86
2017-09-11T02:39:31.738Z,997.9
2017-09-11T02:40:31.758Z,997.85
2017-09-11T02:41:31.779Z,997.84
2017-09-11T02:42:31.798Z,997.8
2017-09-11T02:44:31.879Z,997.81
2017-09-11T02:45:31.865Z,997.79
2017-09-11T02:46:31.883Z,997.79
2017-09-11T02:47:31.908Z,997.8
2017-09-11T02:48:31.927Z,997.82
2017-09-11T02:49:31.947Z,997.82
2017-09-11T02:50:31.973Z,997.83
2017-09-11T02:51:31.993Z,997.81
2017-09-11T02:52:32.013Z,997.82
2017-09-11T02:53:32.036Z,997.82
2017-09-11T02:54:32.053Z,997.83
2017-09-11T02:55:32.076Z,997.82
2017-09-11T02:56:32.098Z,997.79
2017-09-11T02:57:32.122Z,997.76
2017-09-11T02:58:32.138Z,997.77
2017-09-11T03:00:32.185Z,997.7
2017-09-11T03:01:32.203Z,997.72
2017-09-11T03:02:32.229Z,997.72
2017-09-11T03:03:32.247Z,997.71
2017-09-11T03:04:32.269Z,997.72
2017-09-11T03:05:32.291Z,997.72
2017-09-11T03:06:32.309Z,997.72
2017-09-11T03:07:32.334Z,997.73
2017-09-11T03:08:32.355Z,997.7
2017-09-11T03:09:32.374Z,997.71
2017-09-11T03:10:32.397Z,997.73
2017-09-11T03:11:32.419Z,997.73
2017-09-11T03:12:32.441Z,997.75
2017-09-11T03:13:32.462Z,997.7
2017-09-11T03:15:32.505Z,997.7
2017-09-11T03:16:32.523Z,997.74
2017-09-11T03:17:32.544Z,997.73
2017-09-11T03:18:32.569Z,997.72
2017-09-11T03:19:32.588Z,997.7
2017-09-11T03:20:32.608Z,997.7
2017-09-11T03:21:32.631Z,997.62
2017-09-11T03:22:32.655Z,997.61
2017-09-11T03:23:32.671Z,997.59
2017-09-11T03:24:32.693Z,997.54
2017-09-11T03:25:32.717Z,997.51
2017-09-11T03:26:32.739Z,997.5
2017-09-11T03:27:32.760Z,997.52
2017-09-11T03:28:32.778Z,997.49
2017-09-11T03:29:32.802Z,997.46
2017-09-11T03:30:32.822Z,997.51
2017-09-11T03:31:32.852Z,997.5
2017-09-11T03:32:32.866Z,997.55
2017-09-11T03:33:32.883Z,997.53
2017-09-11T03:34:32.905Z,997.49
2017-09-11T03:35:32.929Z,997.51
2017-09-11T03:36:32.948Z,997.47
2017-09-11T03:37:32.968Z,997.43
2017-09-11T03:38:32.993Z,997.4
2017-09-11T03:39:33.010Z,997.42
2017-09-11T03:40:33.035Z,997.41
2017-09-11T03:41:33.054Z,997.37
2017-09-11T03:42:33.077Z,997.36
2017-09-11T03:43:33.098Z,997.33
2017-09-11T03:44:33.119Z,997.32
2017-09-11T03:45:33.139Z,997.29
2017-09-11T03:47:33.182Z,997.3
2017-09-11T03:48:33.201Z,997.27
2017-09-11T03:49:33.223Z,997.21
2017-09-11T03:50:33.243Z,997.21
2017-09-11T03:51:33.268Z,997.16
2017-09-11T03:52:33.285Z,997.16
2017-09-11T03:53:33.309Z,997.14
2017-09-11T03:54:33.330Z,997.16
2017-09-11T03:55:33.349Z,997.17
2017-09-11T03:56:33.370Z,997.1
2017-09-11T03:57:33.390Z,997.1
2017-09-11T03:58:33.415Z,997.06
2017-09-11T03:59:33.436Z,997.07
2017-09-11T04:00:33.453Z,997.05
2017-09-11T04:01:33.478Z,997.05
2017-09-11T04:03:33.524Z,997.02
2017-09-11T04:04:33.542Z,997.05
2017-09-11T04:05:33.561Z,996.99
2017-09-11T04:06:33.585Z,997.02
2017-09-11T04:07:33.604Z,996.96
2017-09-11T04:08:33.626Z,996.92
2017-09-11T04:09:33.644Z,996.94
2017-09-11T04:10:33.666Z,996.93
2017-09-11T04:11:33.689Z,996.92
2017-09-11T04:12:33.710Z,996.93
2017-09-11T04:13:33.729Z,997.01
2017-09-11T04:14:33.751Z,996.95
2017-09-11T04:15:33.772Z,996.94
2017-09-11T04:16:33.795Z,996.91
2017-09-11T04:17:33.814Z,996.92
2017-09-11T04:19:33.858Z,996.9
2017-09-11T04:20:33.879Z,996.9
2017-09-11T04:21:33.901Z,996.89
2017-09-11T04:22:33.921Z,996.88
2017-09-11T04:23:33.940Z,996.9
2017-09-11T04:24:33.964Z,996.92
2017-09-11T04:25:33.985Z,996.95
2017-09-11T04:26:34.005Z,996.94
2017-09-11T04:27:34.025Z,996.95
2017-09-11T04:28:34.045Z,996.93
2017-09-11T04:29:34.066Z,996.93
2017-09-11T04:30:34.090Z,996.94
2017-09-11T04:31:34.108Z,996.94
2017-09-11T04:32:34.130Z,996.93
2017-09-11T04:33:34.152Z,996.89
2017-09-11T04:35:34.193Z,996.9
2017-09-11T04:36:34.215Z,996.9
2017-09-11T04:37:34.237Z,996.85
2017-09-11T04:38:34.258Z,996.9
2017-09-11T04:39:34.280Z,996.85
2017-09-11T04:40:34.301Z,996.87
2017-09-11T04:41:34.318Z,996.87
2017-09-11T04:42:34.341Z,996.86
2017-09-11T04:43:34.365Z,996.83
2017-09-11T04:44:34.383Z,996.81
2017-09-11T04:45:34.406Z,996.79
2017-09-11T04:46:34.425Z,996.81
2017-09-11T04:47:34.446Z,996.76
2017-09-11T04:48:34.468Z,996.74
2017-09-11T04:50:34.512Z,996.79
2017-09-11T04:51:34.531Z,996.75
2017-09-11T04:52:34.554Z,996.76
2017-09-11T04:53:34.574Z,996.78
2017-09-11T04:54:34.596Z,996.76
2017-09-11T04:55:34.619Z,996.72
2017-09-11T04:56:34.641Z,996.72
2017-09-11T04:57:34.660Z,996.76
2017-09-11T04:58:34.681Z,996.83
2017-09-11T04:59:34.701Z,996.77
2017-09-11T05:00:34.724Z,996.75
2017-09-11T05:01:34.746Z,996.77
2017-09-11T05:02:34.766Z,996.74
2017-09-11T05:03:34.790Z,996.72
2017-09-11T05:04:34.808Z,996.73
2017-09-11T05:05:34.833Z,996.73
2017-09-11T05:06:34.850Z,996.72
2017-09-11T05:07:34.907Z,996.7
2017-09-11T05:08:34.894Z,996.73
2017-09-11T05:09:34.917Z,996.74
2017-09-11T05:10:34.940Z,996.72
2017-09-11T05:11:34.958Z,996.73
2017-09-11T05:12:34.978Z,996.79
2017-09-11T05:13:35.201Z,996.76
2017-09-11T05:14:35.024Z,996.73
2017-09-11T05:15:35.047Z,996.74
2017-09-11T05:16:35.067Z,996.76
2017-09-11T05:17:35.085Z,996.73
2017-09-11T05:18:35.108Z,996.73
2017-09-11T05:19:35.128Z,996.72
2017-09-11T05:20:35.152Z,996.69
2017-09-11T05:22:35.197Z,996.66
2017-09-11T05:23:35.214Z,996.68
2017-09-11T05:24:35.235Z,996.68
2017-09-11T05:25:35.258Z,996.63
2017-09-11T05:26:35.278Z,996.65
2017-09-11T05:27:35.303Z,996.68
2017-09-11T05:28:35.324Z,996.72
2017-09-11T05:29:35.346Z,996.64
2017-09-11T05:30:35.365Z,996.65
2017-09-11T05:31:35.386Z,996.63
2017-09-11T05:32:35.407Z,996.63
2017-09-11T05:33:35.432Z,996.59
2017-09-11T05:34:35.455Z,996.57
2017-09-11T05:35:35.475Z,996.61
2017-09-11T05:36:35.497Z,996.59
2017-09-11T05:38:35.538Z,996.59
2017-09-11T05:39:35.559Z,996.59
2017-09-11T05:40:35.583Z,996.59
2017-09-11T05:41:35.602Z,996.55
2017-09-11T05:42:35.623Z,996.53
2017-09-11T05:43:35.646Z,996.56
2017-09-11T05:44:35.670Z,996.48
2017-09-11T05:45:35.690Z,996.43
2017-09-11T05:46:35.710Z,996.47
2017-09-11T05:47:35.733Z,996.49
2017-09-11T05:48:35.755Z,996.47
2017-09-11T05:49:35.830Z,996.42
2017-09-11T05:50:35.802Z,996.42
2017-09-11T05:51:35.823Z,996.47
2017-09-11T05:52:35.845Z,996.5
2017-09-11T05:54:35.887Z,997.09
2017-09-11T05:55:35.912Z,997.07
2017-09-11T05:56:35.932Z,997.25
2017-09-11T05:57:35.957Z,997.22
2017-09-11T05:58:35.979Z,997.33
2017-09-11T05:59:36.001Z,997.33
2017-09-11T06:00:36.024Z,997.39
2017-09-11T06:01:36.050Z,997.4
2017-09-11T06:02:36.073Z,997.45
2017-09-11T06:03:36.102Z,997.52
2017-09-11T06:04:36.125Z,997.54
2017-09-11T06:05:36.152Z,997.56
2017-09-11T06:06:36.173Z,997.49
2017-09-11T06:07:36.204Z,997.51
2017-09-11T06:08:36.228Z,997.5
2017-09-11T06:10:36.282Z,997.52
2017-09-11T06:11:36.312Z,997.61
2017-09-11T06:12:36.342Z,997.6
2017-09-11T06:13:36.363Z,997.6
2017-09-11T06:14:36.395Z,997.62
2017-09-11T06:15:36.422Z,997.63
2017-09-11T06:16:36.448Z,997.7
2017-09-11T06:17:36.480Z,997.71
2017-09-11T06:18:36.509Z,997.72
2017-09-11T06:19:36.535Z,997.82
2017-09-11T06:20:36.569Z,997.91
2017-09-11T06:21:36.597Z,997.94
2017-09-11T06:22:36.627Z,997.99
2017-09-11T06:23:36.658Z,997.91
2017-09-11T06:25:36.769Z,998.05
2017-09-11T06:26:36.751Z,998.02
2017-09-11T06:27:36.781Z,997.86
2017-09-11T06:28:36.813Z,998
2017-09-11T06:29:36.845Z,998.06
2017-09-11T06:30:36.877Z,998.06
2017-09-11T06:31:36.958Z,998.1
2017-09-11T06:32:36.943Z,998.05
2017-09-11T06:33:36.975Z,998
2017-09-11T06:34:37.005Z,998
2017-09-11T06:35:37.035Z,997.79
2017-09-11T06:36:37.069Z,997.99
2017-09-11T06:37:37.103Z,998
2017-09-11T06:38:37.134Z,998.09
2017-09-11T06:39:37.170Z,998.08
2017-09-11T06:40:37.198Z,998.05
2017-09-11T06:41:37.230Z,997.97
2017-09-11T06:42:37.264Z,997.93
2017-09-11T06:43:37.296Z,997.91
2017-09-11T06:44:37.332Z,997.59
2017-09-11T06:45:37.361Z,997.82
2017-09-11T06:46:37.399Z,997.92
2017-09-11T06:47:37.429Z,997.83
2017-09-11T06:48:37.463Z,997.75
2017-09-11T06:49:37.493Z,997.75
2017-09-11T06:50:37.528Z,997.81
2017-09-11T06:51:37.563Z,997.57
2017-09-11T06:52:37.596Z,997.69
2017-09-11T06:53:37.627Z,997.69
2017-09-11T06:54:37.660Z,997.71
2017-09-11T06:55:37.842Z,997.65
2017-09-11T06:57:37.759Z,997.35
2017-09-11T06:58:37.797Z,997.45
2017-09-11T06:59:37.830Z,997.37
2017-09-11T07:00:37.859Z,997.44
2017-09-11T07:01:37.897Z,997.46
2017-09-11T07:02:37.929Z,997.25
2017-09-11T07:03:37.963Z,997.04
2017-09-11T07:04:37.996Z,997.48
2017-09-11T07:05:38.028Z,997.51
2017-09-11T07:06:38.059Z,997.48
2017-09-11T07:07:38.095Z,997.47
2017-09-11T07:08:38.126Z,997.17
2017-09-11T07:09:38.160Z,997.24
2017-09-11T07:10:38.192Z,997.34
2017-09-11T07:11:38.227Z,997.34
2017-09-11T07:13:38.296Z,997.23
2017-09-11T07:14:38.326Z,997.2
2017-09-11T07:15:38.360Z,996.78
2017-09-11T07:16:38.397Z,996.62
2017-09-11T07:17:38.431Z,996.72
2017-09-11T07:18:38.460Z,996.9
2017-09-11T07:19:38.495Z,996.9
2017-09-11T07:20:38.527Z,996.64
2017-09-11T07:21:38.563Z,996.7
2017-09-11T07:22:38.594Z,997
2017-09-11T07:23:38.627Z,997.23
2017-09-11T07:24:38.660Z,997.03
2017-09-11T07:25:38.694Z,997.23
2017-09-11T07:26:38.726Z,997.15
2017-09-11T07:27:38.755Z,996.87
2017-09-11T07:29:38.821Z,996.66
2017-09-11T07:30:38.853Z,996.59
2017-09-11T07:31:38.886Z,996.52
2017-09-11T07:32:38.915Z,996.68
2017-09-11T07:33:38.950Z,996.77
2017-09-11T07:34:38.981Z,996.77
2017-09-11T07:35:39.011Z,996.5
2017-09-11T07:36:39.047Z,996.47
2017-09-11T07:37:39.075Z,996.6
2017-09-11T07:38:39.105Z,996.56
2017-09-11T07:39:39.135Z,996.79
2017-09-11T07:40:39.165Z,996.74
2017-09-11T07:41:39.197Z,996.75
2017-09-11T07:42:39.225Z,996.74
2017-09-11T07:43:39.253Z,996.84
2017-09-11T07:45:39.314Z,996.87
2017-09-11T07:46:39.343Z,996.92
2017-09-11T07:47:39.370Z,996.79
2017-09-11T07:48:39.404Z,996.67
2017-09-11T07:49:39.435Z,996.67
2017-09-11T07:50:39.463Z,996.68
2017-09-11T07:51:39.489Z,996.63
2017-09-11T07:52:39.521Z,996.69
2017-09-11T07:53:39.552Z,996.66
2017-09-11T07:54:39.582Z,996.62
2017-09-11T07:55:39.612Z,996.64
2017-09-11T07:56:39.640Z,996.62
2017-09-11T07:57:39.670Z,996.61
2017-09-11T07:58:39.701Z,996.61
2017-09-11T08:00:39.763Z,996.56
2017-09-11T08:01:39.792Z,996.54
2017-09-11T08:02:39.818Z,996.44
2017-09-11T08:03:39.850Z,996.48
2017-09-11T08:04:39.883Z,996.43
2017-09-11T08:05:39.908Z,996.4
2017-09-11T08:06:39.942Z,996.41
2017-09-11T08:07:39.970Z,996.4
2017-09-11T08:08:40.006Z,996.46
2017-09-11T08:09:40.025Z,996.38
2017-09-11T08:10:40.058Z,996.39
2017-09-11T08:11:40.084Z,996.4
2017-09-11T08:12:40.117Z,996.4
2017-09-11T08:13:40.143Z,996.42
2017-09-11T08:14:40.170Z,996.38
2017-09-11T08:15:40.202Z,996.37
2017-09-11T08:16:40.229Z,996.33
2017-09-11T08:17:40.254Z,996.26
2017-09-11T08:18:40.285Z,996.24
2017-09-11T08:19:40.311Z,996.23
2017-09-11T08:20:40.338Z,996.24
2017-09-11T08:21:40.370Z,996.22
2017-09-11T08:22:40.397Z,996.2
2017-09-11T08:23:40.425Z,996.26
2017-09-11T08:24:40.450Z,996.28
2017-09-11T08:25:40.481Z,996.32
2017-09-11T08:26:40.506Z,996.3
2017-09-11T08:27:40.537Z,996.28
2017-09-11T08:28:40.564Z,996.25
2017-09-11T08:29:40.592Z,996.25
2017-09-11T08:30:40.616Z,996.26
2017-09-11T08:32:40.670Z,996.2
2017-09-11T08:33:40.699Z,996.29
2017-09-11T08:34:40.727Z,996.22
2017-09-11T08:35:40.753Z,996.22
2017-09-11T08:36:40.782Z,996.28
2017-09-11T08:37:40.810Z,996.23
2017-09-11T08:38:40.837Z,996.24
2017-09-11T08:39:40.864Z,996.23
2017-09-11T08:40:40.888Z,996.25
2017-09-11T08:41:40.918Z,996.16
2017-09-11T08:42:40.946Z,996.19
2017-09-11T08:43:40.970Z,996.13
2017-09-11T08:44:41.001Z,996.09
2017-09-11T08:45:41.026Z,996.13
2017-09-11T08:46:41.053Z,996.08
2017-09-11T08:48:41.105Z,996.01
2017-09-11T08:49:41.130Z,996.06
2017-09-11T08:50:41.161Z,996.12
2017-09-11T08:51:41.188Z,996.07
2017-09-11T08:52:41.210Z,995.99
2017-09-11T08:53:41.238Z,995.98
2017-09-11T08:54:41.267Z,996.02
2017-09-11T08:55:41.291Z,996
2017-09-11T08:56:41.320Z,995.88
2017-09-11T08:57:41.345Z,995.97
2017-09-11T08:58:41.372Z,995.99
2017-09-11T08:59:41.398Z,996.05
2017-09-11T09:00:41.426Z,995.99
2017-09-11T09:01:41.451Z,996.01
2017-09-11T09:02:41.476Z,996
2017-09-11T09:04:41.532Z,995.92
2017-09-11T09:05:41.557Z,995.81
2017-09-11T09:06:41.585Z,995.75
2017-09-11T09:07:41.610Z,995.77
2017-09-11T09:08:41.634Z,995.74
2017-09-11T09:09:41.661Z,995.68
2017-09-11T09:10:41.688Z,995.67
2017-09-11T09:11:41.713Z,995.66
2017-09-11T09:12:41.744Z,995.68
2017-09-11T09:13:41.765Z,995.74
2017-09-11T09:14:41.792Z,995.73
2017-09-11T09:15:41.821Z,995.76
2017-09-11T09:16:41.848Z,995.81
2017-09-11T09:17:41.871Z,995.8
2017-09-11T09:18:41.898Z,995.75
2017-09-11T09:20:41.952Z,995.68
2017-09-11T09:21:41.979Z,995.63
2017-09-11T09:22:42.000Z,995.58
2017-09-11T09:23:42.027Z,995.61
2017-09-11T09:24:42.053Z,995.61
2017-09-11T09:25:42.080Z,995.64
2017-09-11T09:26:42.107Z,995.59
2017-09-11T09:27:42.139Z,995.57
2017-09-11T09:28:42.158Z,995.59
2017-09-11T09:29:42.183Z,995.64
2017-09-11T09:30:42.209Z,995.6
2017-09-11T09:31:42.237Z,995.65
2017-09-11T09:32:42.263Z,995.6
2017-09-11T09:33:42.288Z,995.66
2017-09-11T09:35:42.343Z,995.66
2017-09-11T09:36:42.370Z,995.66
2017-09-11T09:37:42.393Z,995.67
2017-09-11T09:38:42.421Z,995.71
2017-09-11T09:39:42.498Z,995.59
2017-09-11T09:40:42.474Z,995.57
2017-09-11T09:41:42.499Z,995.58
2017-09-11T09:42:42.539Z,995.55
2017-09-11T09:43:42.551Z,995.62
2017-09-11T09:44:42.584Z,995.56
2017-09-11T09:45:42.607Z,995.55
2017-09-11T09:46:42.635Z,995.56
2017-09-11T09:47:42.658Z,995.58
2017-09-11T09:48:42.685Z,995.57
2017-09-11T09:49:42.711Z,995.55
2017-09-11T09:50:42.745Z,995.54
2017-09-11T09:51:42.765Z,995.53
2017-09-11T09:52:42.793Z,995.49
2017-09-11T09:53:42.822Z,995.44
2017-09-11T09:54:42.850Z,995.49
2017-09-11T09:55:42.877Z,995.43
2017-09-11T09:56:42.901Z,995.5
2017-09-11T09:57:42.931Z,995.49
2017-09-11T09:58:42.957Z,995.49
2017-09-11T09:59:42.984Z,995.44
2017-09-11T10:00:43.010Z,995.52
2017-09-11T10:01:43.036Z,995.45
2017-09-11T10:02:43.065Z,995.48
2017-09-11T10:03:43.092Z,995.46
2017-09-11T10:04:43.121Z,995.45
2017-09-11T10:05:43.148Z,995.42
2017-09-11T10:07:43.202Z,995.41
2017-09-11T10:08:43.227Z,995.41
2017-09-11T10:09:43.256Z,995.41
2017-09-11T10:10:43.284Z,995.37
2017-09-11T10:11:43.310Z,995.33
2017-09-11T10:12:43.338Z,995.4
2017-09-11T10:13:43.367Z,995.36
2017-09-11T10:14:43.391Z,995.39
2017-09-11T10:15:43.431Z,995.41
2017-09-11T10:16:43.450Z,995.32
2017-09-11T10:17:43.477Z,995.36
2017-09-11T10:18:43.505Z,995.37
2017-09-11T10:19:43.532Z,995.26
2017-09-11T10:20:43.558Z,995.24
2017-09-11T10:21:43.586Z,995.2
2017-09-11T10:23:43.644Z,995.17
2017-09-11T10:24:43.673Z,995.18
2017-09-11T10:25:43.698Z,995.19
2017-09-11T10:26:43.729Z,995.19
2017-09-11T10:27:43.755Z,995.25
2017-09-11T10:28:43.782Z,995.3
2017-09-11T10:29:43.811Z,995.19
2017-09-11T10:30:43.842Z,995.32
2017-09-11T10:31:43.868Z,995.21
2017-09-11T10:32:43.896Z,995.24
2017-09-11T10:33:43.920Z,995.36
2017-09-11T10:34:43.952Z,995.35
2017-09-11T10:35:43.976Z,995.4
2017-09-11T10:36:44.005Z,995.35
2017-09-11T10:37:44.035Z,995.25
2017-09-11T10:39:44.087Z,995.2
2017-09-11T10:40:44.119Z,995.34
2017-09-11T10:41:44.142Z,995.28
2017-09-11T10:42:44.170Z,995.35
2017-09-11T10:43:44.198Z,995.32
2017-09-11T10:44:44.228Z,995.23
2017-09-11T10:45:44.254Z,995.25
2017-09-11T10:46:44.281Z,995.24
2017-09-11T10:47:44.312Z,995.13
2017-09-11T10:48:44.337Z,995.16
2017-09-11T10:49:44.367Z,995.2
2017-09-11T10:50:44.393Z,995.12
2017-09-11T10:51:44.422Z,995.22
2017-09-11T10:52:44.446Z,995.23
2017-09-11T10:53:44.475Z,995.16
2017-09-11T10:55:44.531Z,995.3
2017-09-11T10:56:44.558Z,995.28
2017-09-11T10:57:44.585Z,995.3
2017-09-11T10:58:44.612Z,995.21
2017-09-11T10:59:44.641Z,995.29
2017-09-11T11:00:44.668Z,995.2
2017-09-11T11:01:44.694Z,995.22
2017-09-11T11:02:44.719Z,995.21
2017-09-11T11:03:44.749Z,995.13
2017-09-11T11:04:44.776Z,995.12
2017-09-11T11:05:44.803Z,995.15
2017-09-11T11:06:44.831Z,995.19
2017-09-11T11:07:44.858Z,995.3
2017-09-11T11:08:44.885Z,995.24
2017-09-11T11:10:44.936Z,995.14
2017-09-11T11:11:44.965Z,995.25
2017-09-11T11:12:44.993Z,995.21
2017-09-11T11:13:45.017Z,995.26
2017-09-11T11:14:45.045Z,995.25
2017-09-11T11:15:45.072Z,995.27
2017-09-11T11:16:45.099Z,995.39
2017-09-11T11:17:45.128Z,995.2
2017-09-11T11:18:45.154Z,995.38
2017-09-11T11:19:45.182Z,995.29
2017-09-11T11:20:45.210Z,995.34
2017-09-11T11:21:45.236Z,995.38
2017-09-11T11:22:45.259Z,995.3
2017-09-11T11:23:45.290Z,995.23
2017-09-11T11:24:45.316Z,995.23
2017-09-11T11:25:45.344Z,995.28
2017-09-11T11:26:45.370Z,995.29
2017-09-11T11:27:45.397Z,995.31
2017-09-11T11:28:45.426Z,995.26
2017-09-11T11:29:45.450Z,995.32
2017-09-11T11:30:45.476Z,995.23
2017-09-11T11:31:45.506Z,995.25
2017-09-11T11:32:45.535Z,995.36
2017-09-11T11:33:45.559Z,995.31
2017-09-11T11:34:45.586Z,995.32
2017-09-11T11:35:45.610Z,995.28
2017-09-11T11:36:45.638Z,995.26
2017-09-11T11:37:45.663Z,995.26
2017-09-11T11:38:45.692Z,995.19
2017-09-11T11:39:45.721Z,995.21
2017-09-11T11:40:45.745Z,995.24
2017-09-11T11:42:45.799Z,995.31
2017-09-11T11:43:45.826Z,995.4
2017-09-11T11:44:45.852Z,995.29
2017-09-11T11:45:45.882Z,995.4
2017-09-11T11:46:45.909Z,995.46
2017-09-11T11:47:45.933Z,995.48
2017-09-11T11:48:45.962Z,995.51
2017-09-11T11:49:45.989Z,995.48
2017-09-11T11:50:46.016Z,995.48
2017-09-11T11:51:46.039Z,995.4
2017-09-11T11:52:46.066Z,995.45
2017-09-11T11:53:46.096Z,995.39
2017-09-11T11:54:46.120Z,995.35
2017-09-11T11:55:46.149Z,995.35
2017-09-11T11:56:46.176Z,995.3
2017-09-11T11:58:46.229Z,995.23
2017-09-11T11:59:46.256Z,995.36
2017-09-11T12:00:46.279Z,995.28
2017-09-11T12:01:46.306Z,995.2
2017-09-11T12:02:46.332Z,995.18
2017-09-11T12:03:46.409Z,995.14
2017-09-11T12:04:46.389Z,995.12
2017-09-11T12:05:46.415Z,995.19
2017-09-11T12:06:46.441Z,995.13
2017-09-11T12:07:46.466Z,995.14
2017-09-11T12:08:46.494Z,995.11
2017-09-11T12:09:46.522Z,995.08
2017-09-11T12:10:46.545Z,995.08
2017-09-11T12:11:46.576Z,995.08
2017-09-11T12:12:46.600Z,995.2
2017-09-11T12:14:46.653Z,995.3
2017-09-11T12:15:46.682Z,995.2
2017-09-11T12:16:46.707Z,995.27
2017-09-11T12:17:46.735Z,995.25
2017-09-11T12:18:46.762Z,995.18
2017-09-11T12:19:46.785Z,995.03
2017-09-11T12:20:46.815Z,995.11
2017-09-11T12:21:46.839Z,995.07
2017-09-11T12:22:46.865Z,995.1
2017-09-11T12:23:46.892Z,994.94
2017-09-11T12:24:46.918Z,995.14
2017-09-11T12:25:46.946Z,995.05
2017-09-11T12:26:47.021Z,994.99
2017-09-11T12:27:47.001Z,994.98
2017-09-11T12:28:47.023Z,995.06
2017-09-11T12:30:47.077Z,995.14
2017-09-11T12:31:47.105Z,994.99
2017-09-11T12:32:47.132Z,994.98
2017-09-11T12:33:47.161Z,995.07
2017-09-11T12:34:47.185Z,995.06
2017-09-11T12:35:47.209Z,995.02
2017-09-11T12:36:47.239Z,995.04
2017-09-11T12:37:47.266Z,994.95
2017-09-11T12:38:47.300Z,994.99
2017-09-11T12:39:47.318Z,995.01
2017-09-11T12:40:47.343Z,994.96
2017-09-11T12:41:47.368Z,994.96
2017-09-11T12:42:47.399Z,994.98
2017-09-11T12:43:47.424Z,994.96
2017-09-11T12:45:47.475Z,995.01
2017-09-11T12:46:47.501Z,994.86
2017-09-11T12:47:47.531Z,995.02
2017-09-11T12:48:47.557Z,995.02
2017-09-11T12:49:47.582Z,995.11
2017-09-11T12:50:47.609Z,995.08
2017-09-11T12:51:47.631Z,995.08
2017-09-11T12:52:47.658Z,995.11
2017-09-11T12:53:47.687Z,995.05
2017-09-11T12:54:47.711Z,995.03
2017-09-11T12:55:47.739Z,995.07
2017-09-11T12:56:47.763Z,995.03
2017-09-11T12:57:47.792Z,995.04
2017-09-11T12:58:47.820Z,995.11
2017-09-11T12:59:47.847Z,995.1
2017-09-11T13:00:47.869Z,995.1
2017-09-11T13:01:47.895Z,995.1
2017-09-11T13:02:47.921Z,995.09
2017-09-11T13:03:47.950Z,995.23
2017-09-11T13:04:47.973Z,995.23
2017-09-11T13:05:48.000Z,995.1
2017-09-11T13:06:48.030Z,995.19
2017-09-11T13:07:48.052Z,995.11
2017-09-11T13:08:48.081Z,995.21
2017-09-11T13:09:48.108Z,995.21
2017-09-11T13:10:48.132Z,995.12
2017-09-11T13:11:48.161Z,995.22
2017-09-11T13:12:48.186Z,995.23